Time;durP1;ratioP1;P1;durP2;ratioP2;P2;SDS_P1;SDS_P2;PMS_P1;PMS_P2;Temp;Humidity;BMP_temperature;BMP_pressure;BME280_temperature;BME280_humidity;BME280_pressure;Samples;Min_cycle;Max_cycle;Signal;HPM_P1;HPM_P2
2021/03/26 00:01:10;;;;;;;7.23;5.43;;;8.60;99.90;;;;;;5035345;28;20667;-75
2021/03/26 00:03:39;;;;;;;9.57;5.77;;;8.40;99.90;;;;;;5033930;28;20198;-74
2021/03/26 00:06:09;;;;;;;8.30;5.53;;;8.40;99.90;;;;;;5033914;28;20176;-74
2021/03/26 00:08:35;;;;;;;7.33;5.43;;;8.40;99.90;;;;;;5035200;28;20180;-74
2021/03/26 00:11:02;;;;;;;7.17;6.37;;;8.50;99.90;;;;;;5035004;28;20230;-75
2021/03/26 00:13:28;;;;;;;7.37;6.57;;;8.50;99.90;;;;;;5035012;28;20209;-75
2021/03/26 00:15:53;;;;;;;9.60;6.90;;;8.60;99.90;;;;;;5037441;28;20184;-74
2021/03/26 00:18:20;;;;;;;9.57;7.43;;;8.60;99.90;;;;;;5026704;28;20185;-75
2021/03/26 00:20:45;;;;;;;8.80;7.33;;;8.50;99.90;;;;;;5035003;28;20176;-75
2021/03/26 00:23:11;;;;;;;14.40;8.30;;;8.50;99.90;;;;;;5034959;28;20252;-75
2021/03/26 00:25:37;;;;;;;11.23;8.00;;;8.50;99.90;;;;;;5035157;28;20175;-73
2021/03/26 00:28:04;;;;;;;11.63;7.57;;;8.50;99.90;;;;;;5033656;28;20702;-75
2021/03/26 00:30:29;;;;;;;9.80;7.87;;;8.50;99.90;;;;;;5034733;28;20190;-74
2021/03/26 00:32:55;;;;;;;10.07;7.00;;;8.40;99.90;;;;;;5033525;28;20789;-75
2021/03/26 00:35:23;;;;;;;8.13;7.13;;;8.40;99.90;;;;;;5033477;28;20626;-75
2021/03/26 00:37:49;;;;;;;11.00;6.70;;;8.40;99.90;;;;;;5035026;28;20177;-75
2021/03/26 00:40:18;;;;;;;9.07;6.33;;;8.30;99.90;;;;;;5034987;28;20185;-75
2021/03/26 00:42:45;;;;;;;10.50;7.23;;;8.30;99.90;;;;;;5034771;28;20246;-74
2021/03/26 00:45:13;;;;;;;8.17;6.60;;;8.20;99.90;;;;;;5033212;28;20200;-75
2021/03/26 00:47:40;;;;;;;11.13;7.60;;;8.20;99.90;;;;;;5034421;28;20556;-75
2021/03/26 00:50:14;;;;;;;12.47;8.37;;;8.20;99.90;;;;;;5034522;28;20193;-75
2021/03/26 00:52:40;;;;;;;9.80;7.50;;;8.20;99.90;;;;;;5034327;28;20556;-75
2021/03/26 00:55:08;;;;;;;10.03;8.97;;;8.20;99.90;;;;;;5034367;28;20177;-75
2021/03/26 00:57:34;;;;;;;10.27;7.90;;;8.20;99.90;;;;;;5034577;28;20179;-75
2021/03/26 00:59:59;;;;;;;10.37;7.77;;;8.20;99.90;;;;;;5034149;28;20198;-75
2021/03/26 01:02:25;;;;;;;11.67;8.10;;;8.30;99.90;;;;;;5032852;28;20337;-75
2021/03/26 01:04:51;;;;;;;10.57;8.53;;;8.20;99.90;;;;;;5032599;28;20195;-74
2021/03/26 01:07:17;;;;;;;9.07;8.20;;;8.10;99.90;;;;;;5033986;28;20541;-74
2021/03/26 01:09:43;;;;;;;10.53;8.27;;;8.20;99.90;;;;;;5035313;28;20179;-75
2021/03/26 01:12:09;;;;;;;9.53;8.53;;;8.10;99.90;;;;;;5042776;28;20186;-74
2021/03/26 01:14:35;;;;;;;10.40;8.07;;;8.10;99.90;;;;;;5039671;28;20196;-75
2021/03/26 01:17:02;;;;;;;9.23;7.83;;;8.10;99.90;;;;;;5033212;28;20233;-75
2021/03/26 01:19:28;;;;;;;10.40;8.07;;;8.00;99.90;;;;;;5026125;28;20595;-75
2021/03/26 01:21:54;;;;;;;10.93;8.07;;;8.00;99.90;;;;;;5033319;28;20184;-75
2021/03/26 01:24:20;;;;;;;11.17;8.43;;;8.00;99.90;;;;;;5031639;28;20963;-75
2021/03/26 01:26:46;;;;;;;10.20;9.20;;;8.00;99.90;;;;;;5031806;28;20180;-75
2021/03/26 01:29:12;;;;;;;13.30;9.07;;;7.90;99.90;;;;;;5033152;28;20269;-75
2021/03/26 01:31:39;;;;;;;9.27;8.13;;;7.90;99.90;;;;;;5033296;28;20183;-75
2021/03/26 01:34:06;;;;;;;13.67;8.47;;;7.90;99.90;;;;;;5032925;28;20262;-75
2021/03/26 01:36:34;;;;;;;13.70;8.53;;;7.80;99.90;;;;;;5034308;28;20175;-74
2021/03/26 01:39:00;;;;;;;9.03;8.13;;;7.70;99.90;;;;;;5034579;28;20665;-74
2021/03/26 01:41:26;;;;;;;10.87;8.47;;;7.70;99.90;;;;;;5033613;28;20201;-74
2021/03/26 01:43:52;;;;;;;10.27;8.57;;;7.70;99.90;;;;;;5032018;28;20202;-75
2021/03/26 01:46:19;;;;;;;11.20;8.50;;;7.50;99.90;;;;;;5033657;28;20180;-75
2021/03/26 01:48:51;;;;;;;9.97;8.07;;;7.70;99.90;;;;;;5033401;28;20214;-75
2021/03/26 01:51:20;;;;;;;12.27;8.37;;;7.60;99.90;;;;;;5033422;28;20664;-74
2021/03/26 01:53:47;;;;;;;9.43;8.43;;;7.70;99.90;;;;;;5033086;28;20204;-75
2021/03/26 01:56:13;;;;;;;13.23;8.30;;;7.70;99.90;;;;;;5031721;28;20198;-74
2021/03/26 01:58:40;;;;;;;11.60;7.83;;;7.50;99.90;;;;;;5033230;28;20521;-74
2021/03/26 02:01:22;;;;;;;14.53;8.57;;;7.50;99.90;;;;;;5033085;28;20716;-74
2021/03/26 02:03:54;;;;;;;10.17;8.30;;;7.40;99.90;;;;;;5032885;28;20208;-74
2021/03/26 02:06:30;;;;;;;10.60;8.33;;;7.30;99.90;;;;;;5032533;28;20209;-75
2021/03/26 02:09:24;;;;;;;8.77;7.83;;;7.20;99.90;;;;;;5033125;28;20620;-75
2021/03/26 02:11:51;;;;;;;8.90;7.77;;;7.10;99.90;;;;;;5029494;28;20281;-74
2021/03/26 02:14:22;;;;;;;12.10;8.80;;;7.10;99.90;;;;;;5036569;28;20688;-74
2021/03/26 02:16:50;;;;;;;16.90;8.80;;;7.10;99.90;;;;;;5033145;28;20185;-75
2021/03/26 02:19:22;;;;;;;10.70;8.60;;;6.90;99.90;;;;;;5024991;28;20206;-75
2021/03/26 02:21:48;;;;;;;10.97;8.83;;;6.90;99.90;;;;;;5034303;28;20179;-74
2021/03/26 02:24:13;;;;;;;10.30;8.23;;;6.90;99.90;;;;;;5032325;28;20210;-74
2021/03/26 02:26:44;;;;;;;12.67;8.47;;;6.90;99.90;;;;;;5031135;28;20176;-75
2021/03/26 02:29:24;;;;;;;9.50;8.60;;;6.80;99.90;;;;;;5023527;28;20639;-75
2021/03/26 02:32:19;;;;;;;11.73;8.23;;;6.80;99.90;;;;;;5014330;28;20178;-74
2021/03/26 02:35:17;;;;;;;10.13;8.27;;;6.70;99.90;;;;;;5022866;28;20535;-75
2021/03/26 02:38:00;;;;;;;12.43;7.80;;;6.60;99.90;;;;;;5016643;28;20174;-75
2021/03/26 02:40:31;;;;;;;9.50;8.50;;;6.60;99.90;;;;;;5019854;28;20684;-75
2021/03/26 02:43:10;;;;;;;9.87;7.97;;;6.60;99.90;;;;;;5014632;28;20637;-75
2021/03/26 02:45:41;;;;;;;11.27;8.47;;;6.50;99.90;;;;;;5017612;28;20179;-73
2021/03/26 02:48:20;;;;;;;10.27;8.43;;;6.40;99.90;;;;;;5024847;28;20169;-75
2021/03/26 02:51:03;;;;;;;9.70;7.90;;;6.30;99.90;;;;;;5027884;28;20186;-74
2021/03/26 02:53:55;;;;;;;10.30;8.07;;;6.20;99.90;;;;;;5032494;28;20208;-74
2021/03/26 02:56:47;;;;;;;8.80;7.37;;;6.20;99.90;;;;;;5033480;28;20207;-74
2021/03/26 02:59:36;;;;;;;10.23;7.97;;;6.10;99.90;;;;;;5027880;28;20197;-73
2021/03/26 03:02:04;;;;;;;11.27;7.93;;;6.20;99.90;;;;;;5013138;28;20549;-74
2021/03/26 03:04:40;;;;;;;9.13;7.07;;;6.10;99.90;;;;;;5031235;28;21634;-74
2021/03/26 03:07:29;;;;;;;12.17;8.30;;;6.00;99.90;;;;;;5028517;28;20532;-74
2021/03/26 03:10:38;;;;;;;10.27;8.33;;;5.90;99.90;;;;;;5032967;28;20252;-74
2021/03/26 03:13:32;;;;;;;11.43;8.63;;;5.80;99.90;;;;;;5002461;28;20239;-74
2021/03/26 03:16:05;;;;;;;16.73;8.40;;;5.70;99.90;;;;;;5015009;28;20197;-74
2021/03/26 03:18:38;;;;;;;10.40;8.60;;;5.80;99.90;;;;;;5023394;28;20169;-74
2021/03/26 03:21:20;;;;;;;9.80;7.87;;;5.80;99.90;;;;;;5032977;28;20180;-74
2021/03/26 03:23:46;;;;;;;12.47;9.23;;;5.80;99.90;;;;;;5057080;23;20229;-73
2021/03/26 03:26:47;;;;;;;12.20;8.90;;;5.80;99.90;;;;;;5031064;28;20180;-73
2021/03/26 03:29:36;;;;;;;11.60;8.03;;;5.70;99.90;;;;;;5022157;28;20718;-73
2021/03/26 03:32:14;;;;;;;12.90;8.23;;;5.60;99.90;;;;;;5033152;28;20199;-72
2021/03/26 03:34:44;;;;;;;9.40;7.90;;;5.60;99.90;;;;;;5033259;28;20190;-72
2021/03/26 03:37:19;;;;;;;13.53;8.73;;;5.50;99.90;;;;;;5033065;28;20215;-72
2021/03/26 03:40:06;;;;;;;9.83;7.70;;;5.50;99.90;;;;;;5033360;28;20652;-72
2021/03/26 03:42:47;;;;;;;12.07;7.73;;;5.50;99.90;;;;;;5032845;28;20183;-72
2021/03/26 03:45:36;;;;;;;15.17;8.13;;;5.50;99.90;;;;;;5033105;28;20252;-72
2021/03/26 03:48:10;;;;;;;10.93;8.50;;;5.50;99.90;;;;;;5031644;28;20220;-72
2021/03/26 03:50:42;;;;;;;11.80;8.50;;;5.40;99.90;;;;;;5033159;28;20262;-72
2021/03/26 03:53:20;;;;;;;8.67;7.40;;;5.30;99.90;;;;;;5031664;28;20575;-73
2021/03/26 03:55:56;;;;;;;10.53;8.40;;;5.40;99.90;;;;;;5033075;28;20184;-72
2021/03/26 03:58:31;;;;;;;11.43;8.73;;;5.40;99.90;;;;;;5033201;28;20249;-73
2021/03/26 04:01:01;;;;;;;14.30;8.37;;;5.30;99.90;;;;;;5031760;28;20267;-73
2021/03/26 04:03:39;;;;;;;10.27;8.60;;;5.30;99.90;;;;;;5031508;28;20204;-73
2021/03/26 04:06:35;;;;;;;10.97;8.87;;;5.20;99.90;;;;;;5032894;28;20267;-73
2021/03/26 04:09:10;;;;;;;10.53;9.07;;;5.10;99.90;;;;;;5029717;28;20283;-73
2021/03/26 04:12:00;;;;;;;12.40;8.10;;;5.00;99.90;;;;;;5032820;28;20635;-73
2021/03/26 04:14:48;;;;;;;14.53;8.70;;;5.00;99.90;;;;;;5031561;28;20199;-73
2021/03/26 04:17:35;;;;;;;11.87;8.57;;;5.00;99.90;;;;;;5035610;28;20175;-73
2021/03/26 04:20:14;;;;;;;15.70;8.50;;;4.90;99.90;;;;;;5034547;28;20191;-73
2021/03/26 04:22:46;;;;;;;17.37;9.30;;;4.90;99.90;;;;;;5032598;28;20179;-72
2021/03/26 04:25:16;;;;;;;12.70;9.13;;;4.80;99.90;;;;;;5032580;28;20192;-72
2021/03/26 04:27:45;;;;;;;13.17;9.63;;;4.90;99.90;;;;;;5033102;28;20172;-72
2021/03/26 04:30:16;;;;;;;10.63;8.93;;;4.80;99.90;;;;;;5033046;28;20607;-72
2021/03/26 04:32:42;;;;;;;13.30;8.60;;;4.90;99.90;;;;;;5034394;28;20180;-72
2021/03/26 04:35:11;;;;;;;16.47;9.17;;;4.90;99.90;;;;;;5035690;28;20283;-72
2021/03/26 04:37:50;;;;;;;12.33;8.77;;;5.00;99.90;;;;;;5036196;28;20176;-72
2021/03/26 04:40:22;;;;;;;13.30;8.20;;;5.00;99.90;;;;;;5036221;28;20235;-72
2021/03/26 04:42:53;;;;;;;10.70;8.53;;;5.00;99.90;;;;;;5035666;28;20201;-73
2021/03/26 04:45:28;;;;;;;11.90;8.80;;;4.90;99.90;;;;;;5035589;28;20215;-72
2021/03/26 04:48:11;;;;;;;13.90;8.87;;;4.90;99.90;;;;;;5034822;28;20194;-72
2021/03/26 04:50:44;;;;;;;10.00;8.57;;;4.90;99.90;;;;;;5036198;28;20172;-72
2021/03/26 04:53:21;;;;;;;15.40;9.13;;;4.80;99.90;;;;;;5036126;28;20724;-72
2021/03/26 04:55:57;;;;;;;15.40;9.93;;;4.90;99.90;;;;;;5036245;28;20175;-72
2021/03/26 04:58:28;;;;;;;12.53;9.30;;;4.80;99.90;;;;;;5031260;28;20531;-72
2021/03/26 05:00:59;;;;;;;11.13;8.87;;;4.70;99.90;;;;;;5025462;28;20195;-72
2021/03/26 05:03:33;;;;;;;14.43;9.23;;;4.60;99.90;;;;;;5017515;28;20541;-72
2021/03/26 05:06:14;;;;;;;13.50;9.77;;;4.60;99.90;;;;;;5024729;28;20164;-72
2021/03/26 05:08:43;;;;;;;17.50;9.47;;;4.60;99.90;;;;;;5024128;28;20185;-72
2021/03/26 05:11:10;;;;;;;13.43;9.83;;;4.50;99.90;;;;;;5027280;28;20203;-72
2021/03/26 05:13:44;;;;;;;11.97;9.47;;;4.50;99.90;;;;;;5030039;28;20202;-73
2021/03/26 05:16:17;;;;;;;13.63;9.27;;;4.40;99.90;;;;;;5018233;28;20230;-71
2021/03/26 05:18:47;;;;;;;11.37;9.40;;;4.40;99.90;;;;;;5029168;28;20182;-72
2021/03/26 05:21:31;;;;;;;15.53;9.77;;;4.40;99.90;;;;;;5033017;28;20217;-72
2021/03/26 05:24:18;;;;;;;12.37;9.10;;;4.40;99.90;;;;;;5035223;28;20621;-72
2021/03/26 05:26:44;;;;;;;15.53;9.97;;;4.50;99.90;;;;;;5021685;28;20198;-72
2021/03/26 05:29:10;;;;;;;15.23;10.17;;;4.60;99.90;;;;;;5033282;28;20179;-72
2021/03/26 05:32:03;;;;;;;12.70;9.33;;;4.60;99.90;;;;;;5033859;28;20170;-72
2021/03/26 05:34:47;;;;;;;17.67;10.13;;;4.70;99.90;;;;;;5035208;28;20669;-72
2021/03/26 05:37:22;;;;;;;10.33;9.07;;;4.70;99.90;;;;;;5032673;28;20265;-73
2021/03/26 05:39:56;;;;;;;17.50;9.77;;;4.70;99.90;;;;;;5017511;28;20195;-72
2021/03/26 05:42:28;;;;;;;13.33;9.40;;;4.70;99.90;;;;;;5016807;28;20207;-72
2021/03/26 05:45:28;;;;;;;13.67;9.70;;;4.60;99.90;;;;;;5015658;28;20220;-72
2021/03/26 05:48:16;;;;;;;15.23;9.77;;;4.50;99.90;;;;;;5028297;28;20167;-72
2021/03/26 05:51:21;;;;;;;16.77;9.73;;;4.50;99.90;;;;;;5028737;28;20175;-72
2021/03/26 05:53:47;;;;;;;12.20;9.10;;;4.50;99.90;;;;;;5034701;28;20207;-72
2021/03/26 05:56:35;;;;;;;16.60;9.73;;;4.50;99.90;;;;;;5034764;28;20179;-72
2021/03/26 05:59:20;;;;;;;15.90;10.57;;;4.50;99.90;;;;;;5034455;28;20549;-72
2021/03/26 06:01:51;;;;;;;13.83;10.33;;;4.60;99.90;;;;;;5021461;28;20258;-72
2021/03/26 06:04:43;;;;;;;14.53;10.00;;;4.60;99.90;;;;;;5032532;28;20698;-72
2021/03/26 06:07:14;;;;;;;15.27;10.77;;;4.70;99.90;;;;;;5033830;28;20202;-72
2021/03/26 06:10:12;;;;;;;14.33;10.63;;;4.80;99.90;;;;;;5033319;28;20181;-73
2021/03/26 06:13:14;;;;;;;13.63;10.90;;;4.90;99.90;;;;;;5023921;28;20254;-74
2021/03/26 06:15:49;;;;;;;16.73;9.87;;;5.10;99.90;;;;;;5033188;28;20210;-73
2021/03/26 06:18:24;;;;;;;14.07;10.70;;;5.20;99.90;;;;;;5034441;28;20217;-73
2021/03/26 06:21:24;;;;;;;13.53;10.00;;;5.30;99.90;;;;;;5035121;28;20588;-73
2021/03/26 06:24:11;;;;;;;16.17;10.43;;;5.40;99.90;;;;;;5039507;28;20213;-73
2021/03/26 06:27:08;;;;;;;22.07;10.93;;;5.50;99.90;;;;;;5032928;28;20218;-74
2021/03/26 06:30:02;;;;;;;14.90;11.33;;;5.50;99.90;;;;;;5006040;28;20192;-73
2021/03/26 06:33:20;;;;;;;19.50;11.43;;;5.50;99.90;;;;;;5034394;28;20204;-74
2021/03/26 06:35:58;;;;;;;15.37;10.67;;;5.50;99.90;;;;;;5034610;28;20214;-74
2021/03/26 06:38:56;;;;;;;17.63;12.07;;;5.60;99.90;;;;;;5034172;28;20219;-73
2021/03/26 06:41:57;;;;;;;16.17;11.80;;;5.60;99.90;;;;;;5034036;28;20247;-74
2021/03/26 06:45:00;;;;;;;18.13;12.13;;;5.70;99.90;;;;;;5030760;28;20219;-73
2021/03/26 06:47:44;;;;;;;15.37;11.40;;;5.60;99.90;;;;;;5034166;28;20659;-74
2021/03/26 06:50:40;;;;;;;17.00;10.67;;;5.70;99.90;;;;;;5034806;28;20179;-74
2021/03/26 06:53:29;;;;;;;17.07;11.40;;;5.70;99.90;;;;;;5038581;28;20208;-74
2021/03/26 06:56:27;;;;;;;14.90;10.93;;;5.80;99.90;;;;;;5028300;28;20193;-74
2021/03/26 06:59:11;;;;;;;16.87;11.93;;;5.90;99.90;;;;;;5010334;28;20207;-74
2021/03/26 07:02:11;;;;;;;18.87;11.70;;;6.00;99.90;;;;;;5032544;28;20220;-74
2021/03/26 07:04:58;;;;;;;15.87;11.50;;;6.10;99.90;;;;;;5033534;28;20201;-74
2021/03/26 07:07:52;;;;;;;16.17;12.27;;;6.20;99.90;;;;;;5033601;28;20174;-74
2021/03/26 07:10:42;;;;;;;14.20;11.43;;;6.30;99.90;;;;;;5033613;28;20170;-73
2021/03/26 07:13:38;;;;;;;17.70;11.70;;;6.40;99.90;;;;;;5033489;28;20248;-73
2021/03/26 07:16:27;;;;;;;16.43;12.37;;;6.40;99.90;;;;;;5033477;28;20173;-74
2021/03/26 07:19:02;;;;;;;13.23;11.33;;;6.50;99.90;;;;;;5033397;28;20591;-73
2021/03/26 07:21:27;;;;;;;24.03;12.67;;;6.60;99.90;;;;;;5033330;28;20193;-74
2021/03/26 07:24:30;;;;;;;18.37;12.00;;;6.80;99.90;;;;;;5031879;28;20700;-74
2021/03/26 07:27:02;;;;;;;18.10;11.77;;;6.90;99.90;;;;;;5032091;28;20174;-74
2021/03/26 07:29:38;;;;;;;23.27;13.77;;;6.90;99.90;;;;;;5031961;28;20171;-74
2021/03/26 07:32:41;;;;;;;18.50;12.70;;;7.00;99.90;;;;;;5033337;28;20175;-74
2021/03/26 07:35:25;;;;;;;16.13;12.43;;;6.90;99.90;;;;;;5031872;28;20185;-74
2021/03/26 07:38:11;;;;;;;15.80;10.90;;;7.00;99.90;;;;;;5033170;28;20651;-74
2021/03/26 07:41:00;;;;;;;15.77;11.43;;;7.10;99.90;;;;;;5033618;28;20179;-74
2021/03/26 07:43:56;;;;;;;13.50;11.17;;;7.10;99.90;;;;;;5031743;28;20195;-74
2021/03/26 07:46:36;;;;;;;17.97;11.93;;;7.20;99.90;;;;;;5033006;28;20185;-72
2021/03/26 07:49:27;;;;;;;14.83;12.27;;;7.40;99.90;;;;;;5033030;28;20217;-73
2021/03/26 07:52:04;;;;;;;14.43;11.17;;;7.50;99.90;;;;;;5033395;28;20257;-73
2021/03/26 07:54:39;;;;;;;14.67;11.37;;;7.70;99.90;;;;;;5031548;28;20198;-73
2021/03/26 07:57:32;;;;;;;14.57;11.60;;;7.80;99.90;;;;;;5031765;28;20328;-73
2021/03/26 08:00:19;;;;;;;17.80;12.70;;;7.80;99.90;;;;;;5023038;28;20182;-73
2021/03/26 08:03:22;;;;;;;19.30;13.03;;;7.80;99.90;;;;;;5032964;28;20220;-73
2021/03/26 08:06:27;;;;;;;19.37;13.30;;;8.00;99.90;;;;;;5037040;28;20193;-73
2021/03/26 08:09:15;;;;;;;20.90;13.27;;;8.10;99.90;;;;;;5035642;28;20179;-73
2021/03/26 08:12:08;;;;;;;21.20;13.93;;;8.20;99.90;;;;;;5036731;28;20239;-74
2021/03/26 08:15:00;;;;;;;19.73;13.50;;;8.30;99.90;;;;;;5035503;28;20278;-73
2021/03/26 08:17:47;;;;;;;19.83;13.17;;;8.40;99.90;;;;;;5036710;28;20256;-74
2021/03/26 08:20:48;;;;;;;18.20;13.70;;;8.50;99.90;;;;;;5038144;28;20182;-74
2021/03/26 08:23:44;;;;;;;27.97;14.47;;;8.50;99.90;;;;;;5023608;28;20222;-74
2021/03/26 08:26:16;;;;;;;24.97;15.67;;;8.40;99.90;;;;;;5035168;28;20175;-74
2021/03/26 08:28:56;;;;;;;25.57;14.27;;;8.50;99.90;;;;;;5036877;28;20214;-74
2021/03/26 08:32:00;;;;;;;19.67;13.63;;;8.60;99.90;;;;;;5036466;28;20164;-74
2021/03/26 08:35:01;;;;;;;22.57;13.80;;;8.80;99.90;;;;;;4991792;28;20621;-74
2021/03/26 08:37:37;;;;;;;20.87;13.90;;;8.80;99.90;;;;;;5024458;28;20245;-74
2021/03/26 08:40:06;;;;;;;19.87;12.87;;;8.80;99.90;;;;;;5036503;28;20227;-74
2021/03/26 08:42:44;;;;;;;22.40;13.00;;;8.90;99.90;;;;;;5036412;28;20534;-74
2021/03/26 08:45:09;;;;;;;15.90;11.80;;;8.90;99.90;;;;;;5036364;28;20560;-74
2021/03/26 08:48:05;;;;;;;15.90;12.13;;;8.90;99.90;;;;;;5036147;28;20174;-75
2021/03/26 08:50:53;;;;;;;14.90;11.73;;;9.10;99.90;;;;;;5035997;28;20188;-74
2021/03/26 08:53:31;;;;;;;16.03;11.37;;;9.10;99.90;;;;;;5038344;28;20697;-74
2021/03/26 08:56:09;;;;;;;16.03;11.80;;;9.20;99.90;;;;;;5036121;28;20181;-74
2021/03/26 08:59:09;;;;;;;18.63;11.90;;;9.30;99.90;;;;;;5035897;28;20172;-72
2021/03/26 09:01:47;;;;;;;14.67;11.90;;;9.50;99.90;;;;;;5047226;28;20181;-75
2021/03/26 09:04:23;;;;;;;19.17;11.93;;;9.60;99.90;;;;;;5035725;28;20793;-73
2021/03/26 09:07:10;;;;;;;14.73;11.93;;;9.70;99.90;;;;;;5035669;28;20588;-74
2021/03/26 09:10:12;;;;;;;15.33;11.43;;;9.80;99.90;;;;;;5036103;28;20176;-75
2021/03/26 09:12:58;;;;;;;17.30;11.90;;;10.00;99.90;;;;;;5034231;28;20172;-73
2021/03/26 09:15:46;;;;;;;16.47;11.50;;;10.10;99.90;;;;;;5034708;28;20185;-74
2021/03/26 09:18:20;;;;;;;15.93;12.13;;;10.10;99.90;;;;;;5035700;28;20171;-74
2021/03/26 09:21:27;;;;;;;19.97;12.00;;;10.20;99.90;;;;;;5035571;28;20203;-73
2021/03/26 09:26:44;;;;;;;13.07;11.30;;;10.30;99.90;;;;;;5054061;22;20284;-74
2021/03/26 09:29:20;;;;;;;13.53;9.93;;;10.50;99.90;;;;;;5034229;28;20268;-75
2021/03/26 09:31:57;;;;;;;11.60;9.57;;;10.70;99.90;;;;;;5034057;28;20176;-75
2021/03/26 09:34:23;;;;;;;15.43;9.33;;;10.70;99.90;;;;;;5033775;28;20212;-75
2021/03/26 09:37:07;;;;;;;13.47;9.13;;;10.80;99.90;;;;;;5035478;28;20185;-74
2021/03/26 09:39:34;;;;;;;10.97;9.50;;;10.80;99.90;;;;;;5035119;28;20682;-75
2021/03/26 09:42:17;;;;;;;14.33;10.00;;;10.90;99.90;;;;;;5035134;28;20193;-75
2021/03/26 09:45:01;;;;;;;15.10;9.60;;;11.00;99.90;;;;;;5034708;28;20216;-74
2021/03/26 09:47:33;;;;;;;12.40;9.30;;;11.00;99.90;;;;;;5033760;28;20178;-75
2021/03/26 09:50:21;;;;;;;11.10;9.30;;;11.10;99.90;;;;;;5034868;28;20188;-75
2021/03/26 09:52:48;;;;;;;11.10;9.70;;;11.30;99.90;;;;;;5029353;28;20695;-75
2021/03/26 09:55:18;;;;;;;13.60;9.77;;;11.30;99.90;;;;;;5033590;28;20743;-75
2021/03/26 09:58:01;;;;;;;11.43;9.10;;;11.40;99.90;;;;;;5034753;28;20188;-75
2021/03/26 10:00:48;;;;;;;10.40;9.27;;;11.40;99.90;;;;;;5034592;28;20654;-75
2021/03/26 10:03:20;;;;;;;12.00;9.17;;;11.60;99.90;;;;;;5034588;28;20182;-75
2021/03/26 10:06:12;;;;;;;12.80;8.13;;;11.80;99.90;;;;;;5034555;28;20198;-75
2021/03/26 10:09:11;;;;;;;9.33;8.50;;;12.00;99.90;;;;;;5033276;28;20727;-75
2021/03/26 10:11:45;;;;;;;10.60;7.67;;;12.10;99.90;;;;;;5034624;28;20175;-75
2021/03/26 10:14:19;;;;;;;13.23;8.17;;;12.20;99.90;;;;;;5035538;28;20176;-75
2021/03/26 10:17:15;;;;;;;11.73;8.47;;;12.20;99.90;;;;;;5034636;28;20227;-75
2021/03/26 10:19:52;;;;;;;14.27;7.87;;;12.30;99.90;;;;;;5034436;28;20231;-75
2021/03/26 10:22:39;;;;;;;12.07;7.60;;;12.40;99.90;;;;;;5034395;28;20181;-75
2021/03/26 10:25:20;;;;;;;11.53;8.40;;;12.40;99.90;;;;;;5032767;28;20221;-75
2021/03/26 10:28:11;;;;;;;11.03;7.27;;;12.50;99.90;;;;;;5032528;28;20177;-75
2021/03/26 10:30:42;;;;;;;10.30;7.70;;;12.80;99.90;;;;;;5034176;28;20265;-76
2021/03/26 10:33:11;;;;;;;9.67;7.80;;;12.80;99.90;;;;;;5034145;28;20181;-75
2021/03/26 10:35:49;;;;;;;10.80;7.50;;;12.90;99.90;;;;;;5034053;28;20545;-75
2021/03/26 10:38:29;;;;;;;17.10;9.40;;;13.00;99.90;;;;;;5034051;28;20170;-75
2021/03/26 10:41:20;;;;;;;12.20;7.90;;;13.20;99.90;;;;;;5034041;28;20185;-75
2021/03/26 10:43:56;;;;;;;18.67;11.43;;;13.40;99.90;;;;;;5034150;28;20204;-75
2021/03/26 10:46:36;;;;;;;14.00;7.90;;;13.50;99.90;;;;;;5032434;28;20553;-75
2021/03/26 10:49:15;;;;;;;7.40;6.70;;;13.60;99.90;;;;;;5033866;28;20170;-74
2021/03/26 10:52:07;;;;;;;8.73;7.13;;;13.70;99.90;;;;;;5033985;28;20637;-75
2021/03/26 10:54:47;;;;;;;11.20;7.63;;;13.90;99.90;;;;;;5031005;28;20279;-75
2021/03/26 10:57:20;;;;;;;7.90;7.13;;;13.90;99.90;;;;;;5033558;28;20607;-75
2021/03/26 10:59:51;;;;;;;10.97;7.67;;;13.90;99.90;;;;;;5033650;28;20341;-76
2021/03/26 11:02:41;;;;;;;7.40;6.70;;;14.10;99.90;;;;;;5032370;28;20216;-75
2021/03/26 11:05:13;;;;;;;8.10;7.30;;;14.30;99.90;;;;;;5033311;28;20202;-75
2021/03/26 11:08:06;;;;;;;8.33;6.97;;;14.40;99.90;;;;;;5033710;28;20206;-75
2021/03/26 11:11:16;;;;;;;8.10;6.43;;;14.50;99.90;;;;;;5027798;28;20195;-75
2021/03/26 11:14:19;;;;;;;8.00;6.50;;;14.60;99.90;;;;;;4992245;28;20291;-75
2021/03/26 11:16:59;;;;;;;10.20;6.40;;;14.40;99.90;;;;;;4975752;28;20367;-76
2021/03/26 11:19:45;;;;;;;7.53;6.73;;;14.50;99.90;;;;;;5023039;28;20210;-75
2021/03/26 11:22:22;;;;;;;8.27;6.83;;;14.60;99.90;;;;;;5027315;28;20677;-76
2021/03/26 11:25:23;;;;;;;7.77;6.97;;;14.70;99.90;;;;;;5033188;28;20216;-76
2021/03/26 11:27:53;;;;;;;10.27;8.03;;;14.80;99.90;;;;;;5011498;28;20198;-76
2021/03/26 11:30:25;;;;;;;8.83;6.53;;;14.80;99.90;;;;;;5032240;28;20704;-76
2021/03/26 11:33:18;;;;;;;7.90;6.17;;;15.00;99.90;;;;;;5033585;28;20182;-75
2021/03/26 11:35:46;;;;;;;7.97;6.23;;;15.20;99.90;;;;;;5031932;28;20221;-76
2021/03/26 11:38:23;;;;;;;6.87;6.10;;;15.40;99.90;;;;;;5032539;28;20232;-76
2021/03/26 11:41:08;;;;;;;7.27;5.30;;;15.50;99.90;;;;;;5033682;28;20527;-75
2021/03/26 11:43:49;;;;;;;6.60;5.30;;;15.70;99.90;;;;;;5032932;28;20181;-76
2021/03/26 11:46:18;;;;;;;7.57;6.00;;;15.90;99.90;;;;;;5033061;28;20649;-76
2021/03/26 11:48:47;;;;;;;8.83;6.50;;;15.80;99.90;;;;;;5033037;28;20166;-76
2021/03/26 11:51:31;;;;;;;10.70;6.77;;;16.00;99.90;;;;;;5032941;28;20206;-76
2021/03/26 11:54:38;;;;;;;8.10;5.67;;;16.00;99.90;;;;;;5032950;28;20182;-76
2021/03/26 11:57:15;;;;;;;7.37;6.13;;;16.00;99.90;;;;;;5033254;28;20265;-76
2021/03/26 12:00:11;;;;;;;6.43;5.83;;;16.00;99.90;;;;;;5032975;28;20324;-76
2021/03/26 12:03:01;;;;;;;7.00;3.70;;;16.20;99.90;;;;;;5026824;28;20302;-76
2021/03/26 12:05:35;;;;;;;7.20;3.63;;;16.20;99.90;;;;;;5032693;28;20586;-76
2021/03/26 12:08:27;;;;;;;7.10;4.53;;;16.10;99.90;;;;;;5034089;28;20189;-76
2021/03/26 12:10:56;;;;;;;7.23;4.53;;;16.10;99.90;;;;;;5021810;28;20173;-76
2021/03/26 12:13:53;;;;;;;5.73;4.77;;;16.10;99.90;;;;;;5031497;28;20641;-76
2021/03/26 12:16:28;;;;;;;4.93;3.70;;;16.20;99.90;;;;;;5031503;28;20224;-76
2021/03/26 12:19:12;;;;;;;5.23;4.70;;;16.40;99.90;;;;;;5032777;28;20218;-76
2021/03/26 12:21:52;;;;;;;6.93;5.80;;;16.60;99.90;;;;;;5022090;28;20190;-76
2021/03/26 12:24:21;;;;;;;5.07;4.57;;;16.50;99.90;;;;;;5032370;28;20593;-75
2021/03/26 12:27:02;;;;;;;5.47;4.70;;;16.30;99.90;;;;;;5032715;28;20174;-76
2021/03/26 12:30:01;;;;;;;5.97;4.57;;;16.30;99.90;;;;;;5032334;28;20305;-72
2021/03/26 12:32:32;;;;;;;6.00;5.23;;;16.50;99.90;;;;;;5024634;28;20240;-72
2021/03/26 12:35:31;;;;;;;6.30;4.53;;;16.50;99.90;;;;;;5024764;28;20257;-71
2021/03/26 12:37:57;;;;;;;8.83;4.90;;;16.50;99.90;;;;;;5022618;28;20657;-72
2021/03/26 12:40:36;;;;;;;7.77;5.17;;;16.60;99.90;;;;;;5027441;28;20176;-72
2021/03/26 12:43:23;;;;;;;5.93;5.17;;;16.60;99.90;;;;;;5025288;28;20214;-72
2021/03/26 12:46:02;;;;;;;5.77;4.70;;;16.50;99.90;;;;;;5027878;28;20248;-72
2021/03/26 12:48:44;;;;;;;6.10;4.30;;;16.60;99.90;;;;;;5030243;28;20186;-72
2021/03/26 12:51:15;;;;;;;6.73;5.17;;;16.60;99.90;;;;;;5023069;28;20547;-72
2021/03/26 12:53:49;;;;;;;9.07;4.83;;;16.60;99.90;;;;;;5029770;28;20167;-71
2021/03/26 12:56:20;;;;;;;6.90;5.07;;;16.60;99.90;;;;;;5022768;28;20210;-72
2021/03/26 12:58:46;;;;;;;5.00;4.60;;;16.60;99.90;;;;;;5027944;28;20175;-72
2021/03/26 13:01:43;;;;;;;6.93;5.63;;;16.60;99.90;;;;;;5025107;28;20179;-71
2021/03/26 13:04:20;;;;;;;6.83;4.57;;;16.60;99.90;;;;;;5025569;28;20226;-71
2021/03/26 13:06:48;;;;;;;6.07;4.83;;;16.70;99.90;;;;;;5022745;28;20170;-72
2021/03/26 13:09:25;;;;;;;6.80;5.23;;;16.60;99.90;;;;;;5030125;28;20170;-73
2021/03/26 13:12:20;;;;;;;6.47;4.90;;;16.70;99.90;;;;;;5029506;28;20210;-71
2021/03/26 13:15:12;;;;;;;9.27;5.13;;;16.80;99.90;;;;;;5022406;28;20613;-72
2021/03/26 13:17:38;;;;;;;7.97;5.33;;;16.80;99.90;;;;;;5024335;28;20237;-73
2021/03/26 13:20:19;;;;;;;7.27;4.97;;;16.80;99.90;;;;;;5028165;28;20194;-71
2021/03/26 13:22:59;;;;;;;6.17;5.57;;;16.90;99.90;;;;;;5029350;28;20265;-72
2021/03/26 13:25:56;;;;;;;6.67;5.17;;;16.90;99.90;;;;;;5029795;28;20210;-72
2021/03/26 13:28:27;;;;;;;6.97;4.53;;;17.00;99.90;;;;;;5031333;28;20544;-71
2021/03/26 13:31:02;;;;;;;4.67;4.23;;;17.00;99.90;;;;;;5018586;28;20180;-72
2021/03/26 13:33:57;;;;;;;5.33;4.20;;;17.00;99.90;;;;;;5030911;28;20268;-71
2021/03/26 13:36:28;;;;;;;5.03;4.40;;;17.00;99.90;;;;;;5023284;28;20179;-72
2021/03/26 13:38:59;;;;;;;6.23;3.97;;;17.10;99.90;;;;;;5021484;28;20174;-72
2021/03/26 13:41:34;;;;;;;5.53;4.93;;;17.20;99.90;;;;;;5029418;28;20676;-71
2021/03/26 13:44:42;;;;;;;6.17;4.63;;;17.20;99.90;;;;;;5021824;28;20203;-72
2021/03/26 13:47:34;;;;;;;6.73;4.97;;;17.30;99.90;;;;;;5025447;28;20204;-72
2021/03/26 13:50:15;;;;;;;5.80;4.47;;;17.40;99.90;;;;;;5023625;28;20186;-72